Register, Georgia
Current Conditions -  °F | °C
As of 11:15 AM on Thursday 29 Jan 2015 (Local Time) from KTBR Reporting Station
Clear Clear  
Wind Chill: 53°   Ceiling: Unl
Heat Index: 53°   Visibility: 10mi
Dew Point: 34°   Wind: 7mph
Humidity: 49%   Direction: 170°S
Pressure: 30.37"   Gusts: NA
Location:  32.37°N, 81.88°W
Report Text: KTBR 291615Z AUTO 17006KT 10SM CLR 12/01 A3037 RMK AO2 T01150012
Loading
Personal Weather Stations






























Interactive Weather Map New forecast layout! Learn more

10-Day Weather Forecast

Advertisements
Track Severe Weather on mobile